Terminal Aerodrome Forecast
Issued by NWS Duluth, MN

Home | Current Version | Previous Version | Text Only | Print | Product List | Glossary On
Versions: 1 2 3 4 5 6 7 8 9 10 11 12 13 14 15 16 17 18 19 20 21 22 23 24 25
221
FTUS43 KDLH 251740
TAFINL
TAF
KINL 251740Z 2518/2618 30007KT P6SM VCSH SCT028 OVC045
     FM252000 28007KT 5SM -SN SCT025 OVC040
     FM252200 26006KT P6SM OVC030
     FM260300 29006KT P6SM VCSH BKN035
     FM260700 VRB03KT P6SM VCSH BKN025
     FM261400 32005KT P6SM BKN040=

USA.gov is the U.S. government's official web portal to all federal, state and local government web resources and services.